sensor_id;sensor_type;location;lat;lon;timestamp;pressure;altitude;pressure_sealevel;temperature
67509;BMP280;54354;44.724;11.284;2023-05-13T00:01:04;101564.00;;;17.18
67509;BMP280;54354;44.724;11.284;2023-05-13T00:03:29;101554.88;;;17.15
67509;BMP280;54354;44.724;11.284;2023-05-13T00:05:55;101562.50;;;17.17
67509;BMP280;54354;44.724;11.284;2023-05-13T00:08:21;101564.00;;;17.18
67509;BMP280;54354;44.724;11.284;2023-05-13T00:10:46;101566.19;;;17.19
67509;BMP280;54354;44.724;11.284;2023-05-13T00:13:12;101570.72;;;17.22
67509;BMP280;54354;44.724;11.284;2023-05-13T00:15:37;101576.72;;;17.26
67509;BMP280;54354;44.724;11.284;2023-05-13T00:18:04;101581.19;;;17.29
67509;BMP280;54354;44.724;11.284;2023-05-13T00:20:30;101575.00;;;17.33
67509;BMP280;54354;44.724;11.284;2023-05-13T00:22:55;101574.88;;;17.36
67509;BMP280;54354;44.724;11.284;2023-05-13T00:25:21;101574.00;;;17.39
67509;BMP280;54354;44.724;11.284;2023-05-13T00:27:46;101571.31;;;17.39
67509;BMP280;54354;44.724;11.284;2023-05-13T00:30:12;101574.00;;;17.39
67509;BMP280;54354;44.724;11.284;2023-05-13T00:32:37;101574.00;;;17.39
67509;BMP280;54354;44.724;11.284;2023-05-13T00:35:03;101574.00;;;17.39
67509;BMP280;54354;44.724;11.284;2023-05-13T00:39:55;101575.91;;;17.39
67509;BMP280;54354;44.724;11.284;2023-05-13T00:42:21;101571.31;;;17.39
67509;BMP280;54354;44.724;11.284;2023-05-13T00:44:46;101564.91;;;17.37
67509;BMP280;54354;44.724;11.284;2023-05-13T00:47:12;101567.72;;;17.33
67509;BMP280;54354;44.724;11.284;2023-05-13T00:49:38;101570.47;;;17.29
67509;BMP280;54354;44.724;11.284;2023-05-13T00:52:04;101563.72;;;17.25
67509;BMP280;54354;44.724;11.284;2023-05-13T00:54:30;101569.97;;;17.22
67509;BMP280;54354;44.724;11.284;2023-05-13T00:56:56;101568.47;;;17.21
67509;BMP280;54354;44.724;11.284;2023-05-13T00:59:23;101563.13;;;17.21
67509;BMP280;54354;44.724;11.284;2023-05-13T01:02:08;101562.25;;;17.24
67509;BMP280;54354;44.724;11.284;2023-05-13T01:04:58;101563.13;;;17.21
67509;BMP280;54354;44.724;11.284;2023-05-13T01:13:00;101565.47;;;17.19
67509;BMP280;54354;44.724;11.284;2023-05-13T01:15:29;101565.78;;;17.21
67509;BMP280;54354;44.724;11.284;2023-05-13T01:18:05;101563.47;;;17.23
67509;BMP280;54354;44.724;11.284;2023-05-13T01:20:32;101568.56;;;17.30
67509;BMP280;54354;44.724;11.284;2023-05-13T01:22:58;101572.19;;;17.36
67509;BMP280;54354;44.724;11.284;2023-05-13T01:25:24;101570.47;;;17.42
67509;BMP280;54354;44.724;11.284;2023-05-13T01:27:52;101576.88;;;17.45
67509;BMP280;54354;44.724;11.284;2023-05-13T01:30:19;101577.63;;;17.45
67509;BMP280;54354;44.724;11.284;2023-05-13T01:32:46;101573.75;;;17.46
67509;BMP280;54354;44.724;11.284;2023-05-13T01:35:15;101569.19;;;17.47
67509;BMP280;54354;44.724;11.284;2023-05-13T01:37:43;101565.19;;;17.51
67509;BMP280;54354;44.724;11.284;2023-05-13T01:40:09;101563.69;;;17.50
67509;BMP280;54354;44.724;11.284;2023-05-13T01:42:36;101565.94;;;17.52
67509;BMP280;54354;44.724;11.284;2023-05-13T01:45:02;101568.59;;;17.52
67509;BMP280;54354;44.724;11.284;2023-05-13T01:47:28;101575.34;;;17.56
67509;BMP280;54354;44.724;11.284;2023-05-13T01:49:54;101565.38;;;17.57
67509;BMP280;54354;44.724;11.284;2023-05-13T01:52:19;101567.63;;;17.58
67509;BMP280;54354;44.724;11.284;2023-05-13T01:54:46;101564.94;;;17.58
67509;BMP280;54354;44.724;11.284;2023-05-13T01:57:13;101564.63;;;17.56
67509;BMP280;54354;44.724;11.284;2023-05-13T01:59:38;101567.63;;;17.58
67509;BMP280;54354;44.724;11.284;2023-05-13T02:02:04;101566.44;;;17.59
67509;BMP280;54354;44.724;11.284;2023-05-13T02:04:30;101572.88;;;17.62
67509;BMP280;54354;44.724;11.284;2023-05-13T02:06:56;101579.72;;;17.63
67509;BMP280;54354;44.724;11.284;2023-05-13T02:09:23;101575.84;;;17.64
67509;BMP280;54354;44.724;11.284;2023-05-13T02:11:49;101571.16;;;17.68
67509;BMP280;54354;44.724;11.284;2023-05-13T02:14:15;101575.75;;;17.68
67509;BMP280;54354;44.724;11.284;2023-05-13T02:16:41;101582.59;;;17.69
67509;BMP280;54354;44.724;11.284;2023-05-13T02:19:06;101579.50;;;17.70
67509;BMP280;54354;44.724;11.284;2023-05-13T02:21:32;101579.06;;;17.72
67509;BMP280;54354;44.724;11.284;2023-05-13T02:23:57;101577.44;;;17.74
67509;BMP280;54354;44.724;11.284;2023-05-13T02:26:23;101576.56;;;17.77
67509;BMP280;54354;44.724;11.284;2023-05-13T02:28:49;101576.44;;;17.81
67509;BMP280;54354;44.724;11.284;2023-05-13T02:31:14;101577.19;;;17.81
67509;BMP280;54354;44.724;11.284;2023-05-13T02:33:41;101570.66;;;17.82
67509;BMP280;54354;44.724;11.284;2023-05-13T02:36:07;101572.78;;;17.87
67509;BMP280;54354;44.724;11.284;2023-05-13T02:38:33;101566.53;;;17.91
67509;BMP280;54354;44.724;11.284;2023-05-13T02:41:00;101558.94;;;17.89
67509;BMP280;54354;44.724;11.284;2023-05-13T02:43:26;101566.22;;;17.88
67509;BMP280;54354;44.724;11.284;2023-05-13T02:45:56;101562.78;;;17.88
67509;BMP280;54354;44.724;11.284;2023-05-13T02:48:22;101562.78;;;17.88
67509;BMP280;54354;44.724;11.284;2023-05-13T02:50:49;101570.53;;;17.86
67509;BMP280;54354;44.724;11.284;2023-05-13T02:53:14;101572.31;;;17.89
67509;BMP280;54354;44.724;11.284;2023-05-13T02:55:46;101564.63;;;17.91
67509;BMP280;54354;44.724;11.284;2023-05-13T02:58:11;101565.38;;;17.92
67509;BMP280;54354;44.724;11.284;2023-05-13T03:00:37;101562.69;;;17.92
67509;BMP280;54354;44.724;11.284;2023-05-13T03:03:03;101559.53;;;17.93
67509;BMP280;54354;44.724;11.284;2023-05-13T03:05:29;101565.66;;;17.94
67509;BMP280;54354;44.724;11.284;2023-05-13T03:07:54;101568.66;;;17.96
67509;BMP280;54354;44.724;11.284;2023-05-13T03:10:22;101570.16;;;17.97
67509;BMP280;54354;44.724;11.284;2023-05-13T03:12:47;101569.25;;;18.00
67509;BMP280;54354;44.724;11.284;2023-05-13T03:15:13;101566.47;;;18.03
67509;BMP280;54354;44.724;11.284;2023-05-13T03:17:40;101570.66;;;18.04
67509;BMP280;54354;44.724;11.284;2023-05-13T03:20:06;101576.75;;;18.05
67509;BMP280;54354;44.724;11.284;2023-05-13T03:22:32;101572.13;;;18.05
67509;BMP280;54354;44.724;11.284;2023-05-13T03:24:58;101576.75;;;18.05
67509;BMP280;54354;44.724;11.284;2023-05-13T03:27:29;101582.84;;;18.05
67509;BMP280;54354;44.724;11.284;2023-05-13T03:29:55;101582.84;;;18.05
67509;BMP280;54354;44.724;11.284;2023-05-13T03:32:22;101587.91;;;18.03
67509;BMP280;54354;44.724;11.284;2023-05-13T03:34:50;101589.81;;;18.03
67509;BMP280;54354;44.724;11.284;2023-05-13T03:37:16;101601.44;;;18.00
67509;BMP280;54354;44.724;11.284;2023-05-13T03:39:41;101602.19;;;18.00
67509;BMP280;54354;44.724;11.284;2023-05-13T03:42:07;101615.47;;;18.04
67509;BMP280;54354;44.724;11.284;2023-05-13T03:44:33;101612.34;;;18.05
67509;BMP280;54354;44.724;11.284;2023-05-13T03:46:58;101614.91;;;18.09
67509;BMP280;54354;44.724;11.284;2023-05-13T03:49:24;101619.41;;;18.12
67509;BMP280;54354;44.724;11.284;2023-05-13T03:51:49;101619.28;;;18.15
67509;BMP280;54354;44.724;11.284;2023-05-13T03:54:15;101620.44;;;18.14
67509;BMP280;54354;44.724;11.284;2023-05-13T03:56:41;101626.13;;;18.17
67509;BMP280;54354;44.724;11.284;2023-05-13T03:59:06;101624.91;;;18.17
67509;BMP280;54354;44.724;11.284;2023-05-13T04:01:34;101634.19;;;18.17
67509;BMP280;54354;44.724;11.284;2023-05-13T04:04:00;101640.59;;;18.19
67509;BMP280;54354;44.724;11.284;2023-05-13T04:06:25;101637.03;;;18.22
67509;BMP280;54354;44.724;11.284;2023-05-13T04:08:51;101640.34;;;18.26
67509;BMP280;54354;44.724;11.284;2023-05-13T04:11:16;101646.00;;;18.28
67509;BMP280;54354;44.724;11.284;2023-05-13T04:13:42;101647.09;;;18.31
67509;BMP280;54354;44.724;11.284;2023-05-13T04:16:10;101649.31;;;18.32
67509;BMP280;54354;44.724;11.284;2023-05-13T04:18:35;101649.63;;;18.34
67509;BMP280;54354;44.724;11.284;2023-05-13T04:21:06;101648.44;;;18.35
67509;BMP280;54354;44.724;11.284;2023-05-13T04:23:31;101650.00;;;18.46
67509;BMP280;54354;44.724;11.284;2023-05-13T04:25:57;101652.97;;;18.48
67509;BMP280;54354;44.724;11.284;2023-05-13T04:28:22;101653.31;;;18.50
67509;BMP280;54354;44.724;11.284;2023-05-13T04:30:49;101660.16;;;18.51
67509;BMP280;54354;44.724;11.284;2023-05-13T04:33:14;101654.69;;;18.54
67509;BMP280;54354;44.724;11.284;2023-05-13T04:35:43;101654.53;;;18.58
67509;BMP280;54354;44.724;11.284;2023-05-13T04:38:09;101661.41;;;18.59
67509;BMP280;54354;44.724;11.284;2023-05-13T04:40:34;101655.16;;;18.62
67509;BMP280;54354;44.724;11.284;2023-05-13T04:43:05;101655.00;;;18.65
67509;BMP280;54354;44.724;11.284;2023-05-13T04:45:36;101654.16;;;18.68
67509;BMP280;54354;44.724;11.284;2023-05-13T04:48:05;101659.06;;;18.70
67509;BMP280;54354;44.724;11.284;2023-05-13T04:50:31;101665.03;;;18.74
67509;BMP280;54354;44.724;11.284;2023-05-13T04:52:56;101665.69;;;18.78
67509;BMP280;54354;44.724;11.284;2023-05-13T04:55:22;101666.16;;;18.86
67509;BMP280;54354;44.724;11.284;2023-05-13T04:57:48;101666.34;;;18.91
67509;BMP280;54354;44.724;11.284;2023-05-13T05:00:14;101669.16;;;18.97
67509;BMP280;54354;44.724;11.284;2023-05-13T05:02:41;101668.31;;;19.00
67509;BMP280;54354;44.724;11.284;2023-05-13T05:05:07;101670.41;;;19.05
67509;BMP280;54354;44.724;11.284;2023-05-13T05:07:33;101674.16;;;19.08
67509;BMP280;54354;44.724;11.284;2023-05-13T05:09:58;101677.00;;;19.13
67509;BMP280;54354;44.724;11.284;2023-05-13T05:12:25;101674.34;;;19.22
67509;BMP280;54354;44.724;11.284;2023-05-13T05:14:50;101679.91;;;19.37
67509;BMP280;54354;44.724;11.284;2023-05-13T05:17:16;101678.72;;;19.47
67509;BMP280;54354;44.724;11.284;2023-05-13T05:19:41;101679.63;;;19.53
67509;BMP280;54354;44.724;11.284;2023-05-13T05:22:07;101679.63;;;19.53
67509;BMP280;54354;44.724;11.284;2023-05-13T05:24:33;101682.91;;;19.57
67509;BMP280;54354;44.724;11.284;2023-05-13T05:26:59;101670.66;;;19.56
67509;BMP280;54354;44.724;11.284;2023-05-13T05:29:34;101677.53;;;19.57
67509;BMP280;54354;44.724;11.284;2023-05-13T05:32:03;101677.97;;;19.56
67509;BMP280;54354;44.724;11.284;2023-05-13T05:34:28;101681.13;;;19.64
67509;BMP280;54354;44.724;11.284;2023-05-13T05:36:54;101680.69;;;19.65
67509;BMP280;54354;44.724;11.284;2023-05-13T05:39:20;101678.56;;;19.69
67509;BMP280;54354;44.724;11.284;2023-05-13T05:41:46;101671.28;;;19.70
67509;BMP280;54354;44.724;11.284;2023-05-13T05:44:12;101669.19;;;19.74
67509;BMP280;54354;44.724;11.284;2023-05-13T05:46:38;101669.06;;;19.77
67509;BMP280;54354;44.724;11.284;2023-05-13T05:49:06;101666.94;;;19.81
67509;BMP280;54354;44.724;11.284;2023-05-13T05:51:33;101665.63;;;19.86
67509;BMP280;54354;44.724;11.284;2023-05-13T05:54:01;101664.28;;;19.91
67509;BMP280;54354;44.724;11.284;2023-05-13T05:56:26;101669.66;;;19.91
67509;BMP280;54354;44.724;11.284;2023-05-13T05:58:52;101666.50;;;19.92
67509;BMP280;54354;44.724;11.284;2023-05-13T06:01:17;101666.06;;;19.94
67509;BMP280;54354;44.724;11.284;2023-05-13T06:03:43;101666.50;;;19.92
67509;BMP280;54354;44.724;11.284;2023-05-13T06:06:10;101669.94;;;19.93
67509;BMP280;54354;44.724;11.284;2023-05-13T06:08:35;101675.31;;;19.93
67509;BMP280;54354;44.724;11.284;2023-05-13T06:11:01;101681.72;;;19.95
67509;BMP280;54354;44.724;11.284;2023-05-13T06:13:26;101687.72;;;19.99
67509;BMP280;54354;44.724;11.284;2023-05-13T06:15:53;101690.41;;;19.99
67509;BMP280;54354;44.724;11.284;2023-05-13T06:18:19;101696.53;;;20.09
67509;BMP280;54354;44.724;11.284;2023-05-13T06:20:44;101689.03;;;20.13
67509;BMP280;54354;44.724;11.284;2023-05-13T06:23:10;101694.72;;;20.15
67509;BMP280;54354;44.724;11.284;2023-05-13T06:25:35;101689.94;;;20.19
67509;BMP280;54354;44.724;11.284;2023-05-13T06:28:01;101696.34;;;20.22
67509;BMP280;54354;44.724;11.284;2023-05-13T06:30:26;101688.28;;;20.22
67509;BMP280;54354;44.724;11.284;2023-05-13T06:32:52;101694.25;;;20.26
67509;BMP280;54354;44.724;11.284;2023-05-13T06:35:19;101698.59;;;20.32
67509;BMP280;54354;44.724;11.284;2023-05-13T06:37:45;101696.63;;;20.42
67509;BMP280;54354;44.724;11.284;2023-05-13T06:40:11;101690.00;;;20.52
67509;BMP280;54354;44.724;11.284;2023-05-13T06:42:40;101705.88;;;20.59
67509;BMP280;54354;44.724;11.284;2023-05-13T06:45:13;101711.66;;;20.67
67509;BMP280;54354;44.724;11.284;2023-05-13T06:47:38;101714.47;;;20.72
67509;BMP280;54354;44.724;11.284;2023-05-13T06:50:04;101718.97;;;20.76
67509;BMP280;54354;44.724;11.284;2023-05-13T06:52:29;101719.25;;;20.78
67509;BMP280;54354;44.724;11.284;2023-05-13T06:54:56;101719.53;;;20.80
67509;BMP280;54354;44.724;11.284;2023-05-13T06:57:21;101719.66;;;20.85
67509;BMP280;54354;44.724;11.284;2023-05-13T06:59:47;101724.91;;;20.89
67509;BMP280;54354;44.724;11.284;2023-05-13T07:02:12;101721.31;;;20.92
67509;BMP280;54354;44.724;11.284;2023-05-13T07:04:38;101725.47;;;20.93
67509;BMP280;54354;44.724;11.284;2023-05-13T07:07:03;101727.69;;;20.94
67509;BMP280;54354;44.724;11.284;2023-05-13T07:09:29;101723.50;;;20.93
67509;BMP280;54354;44.724;11.284;2023-05-13T07:11:54;101723.81;;;20.95
67509;BMP280;54354;44.724;11.284;2023-05-13T07:14:20;101728.28;;;20.98
67509;BMP280;54354;44.724;11.284;2023-05-13T07:16:46;101722.16;;;20.98
67509;BMP280;54354;44.724;11.284;2023-05-13T07:19:11;101722.31;;;20.94
67509;BMP280;54354;44.724;11.284;2023-05-13T07:21:37;101718.88;;;20.94
67509;BMP280;54354;44.724;11.284;2023-05-13T07:24:03;101719.63;;;20.94
67509;BMP280;54354;44.724;11.284;2023-05-13T07:26:30;101718.13;;;20.93
67509;BMP280;54354;44.724;11.284;2023-05-13T07:28:56;101718.13;;;20.93
67509;BMP280;54354;44.724;11.284;2023-05-13T07:31:22;101721.13;;;20.95
67509;BMP280;54354;44.724;11.284;2023-05-13T07:33:48;101721.97;;;21.01
67509;BMP280;54354;44.724;11.284;2023-05-13T07:36:14;101722.28;;;21.04
67509;BMP280;54354;44.724;11.284;2023-05-13T07:38:40;101721.09;;;21.05
67509;BMP280;54354;44.724;11.284;2023-05-13T07:41:06;101719.13;;;21.05
67509;BMP280;54354;44.724;11.284;2023-05-13T07:43:32;101718.41;;;21.05
67509;BMP280;54354;44.724;11.284;2023-05-13T07:45:59;101710.00;;;21.02
67509;BMP280;54354;44.724;11.284;2023-05-13T07:48:25;101714.66;;;21.02
67509;BMP280;54354;44.724;11.284;2023-05-13T07:50:52;101717.81;;;21.00
67509;BMP280;54354;44.724;11.284;2023-05-13T07:53:18;101716.59;;;21.01
67509;BMP280;54354;44.724;11.284;2023-05-13T07:55:43;101713.75;;;21.05
67509;BMP280;54354;44.724;11.284;2023-05-13T07:58:09;101706.09;;;21.13
67509;BMP280;54354;44.724;11.284;2023-05-13T08:00:35;101706.31;;;21.24
67509;BMP280;54354;44.724;11.284;2023-05-13T08:03:01;101701.09;;;21.44
67509;BMP280;54354;44.724;11.284;2023-05-13T08:05:27;101700.63;;;21.70
67509;BMP280;54354;44.724;11.284;2023-05-13T08:07:52;101708.47;;;21.97
67509;BMP280;54354;44.724;11.284;2023-05-13T08:10:18;101699.16;;;22.28
67509;BMP280;54354;44.724;11.284;2023-05-13T08:12:43;101696.63;;;22.54
67509;BMP280;54354;44.724;11.284;2023-05-13T08:15:15;101689.22;;;22.84
67509;BMP280;54354;44.724;11.284;2023-05-13T08:17:41;101684.84;;;23.06
67509;BMP280;54354;44.724;11.284;2023-05-13T08:20:07;101685.22;;;23.20
67509;BMP280;54354;44.724;11.284;2023-05-13T08:22:32;101692.59;;;23.19
67509;BMP280;54354;44.724;11.284;2023-05-13T08:24:58;101693.34;;;23.20
67509;BMP280;54354;44.724;11.284;2023-05-13T08:27:25;101688.47;;;23.24
67509;BMP280;54354;44.724;11.284;2023-05-13T08:29:51;101693.91;;;23.29
67509;BMP280;54354;44.724;11.284;2023-05-13T08:32:16;101684.19;;;23.37
67509;BMP280;54354;44.724;11.284;2023-05-13T08:34:43;101692.59;;;23.40
67509;BMP280;54354;44.724;11.284;2023-05-13T08:37:08;101699.53;;;23.46
67509;BMP280;54354;44.724;11.284;2023-05-13T08:39:34;101701.88;;;23.59
67509;BMP280;54354;44.724;11.284;2023-05-13T08:42:02;101704.19;;;23.66
67509;BMP280;54354;44.724;11.284;2023-05-13T08:44:28;101700.13;;;23.82
67509;BMP280;54354;44.724;11.284;2023-05-13T08:49:33;101690.13;;;23.88
67509;BMP280;54354;44.724;11.284;2023-05-13T08:51:59;101694.72;;;23.82
67509;BMP280;54354;44.724;11.284;2023-05-13T08:54:32;101701.56;;;23.77
67509;BMP280;54354;44.724;11.284;2023-05-13T08:56:57;101711.81;;;23.93
67509;BMP280;54354;44.724;11.284;2023-05-13T08:59:23;101713.91;;;24.10
67509;BMP280;54354;44.724;11.284;2023-05-13T09:01:51;101713.03;;;24.24
67509;BMP280;54354;44.724;11.284;2023-05-13T09:04:23;101720.09;;;24.47
67509;BMP280;54354;44.724;11.284;2023-05-13T09:06:49;101716.25;;;24.65
67509;BMP280;54354;44.724;11.284;2023-05-13T09:09:15;101721.94;;;24.67
67509;BMP280;54354;44.724;11.284;2023-05-13T09:11:40;101721.16;;;24.61
67509;BMP280;54354;44.724;11.284;2023-05-13T09:14:12;101723.25;;;24.46
67509;BMP280;54354;44.724;11.284;2023-05-13T09:16:41;101716.53;;;24.30
67509;BMP280;54354;44.724;11.284;2023-05-13T09:19:06;101722.31;;;24.17
67509;BMP280;54354;44.724;11.284;2023-05-13T09:21:33;101718.28;;;24.07
67509;BMP280;54354;44.724;11.284;2023-05-13T09:24:12;101704.44;;;24.63
67509;BMP280;54354;44.724;11.284;2023-05-13T09:26:43;101706.75;;;24.81
67509;BMP280;54354;44.724;11.284;2023-05-13T09:29:27;101701.66;;;25.05
67509;BMP280;54354;44.724;11.284;2023-05-13T09:31:57;101700.47;;;25.23
67509;BMP280;54354;44.724;11.284;2023-05-13T09:34:33;101703.22;;;25.29
67509;BMP280;54354;44.724;11.284;2023-05-13T09:42:18;101697.28;;;25.19
67509;BMP280;54354;44.724;11.284;2023-05-13T09:44:45;101684.97;;;25.24
67509;BMP280;54354;44.724;11.284;2023-05-13T09:47:14;101686.75;;;25.32
67509;BMP280;54354;44.724;11.284;2023-05-13T09:49:42;101676.38;;;25.47
67509;BMP280;54354;44.724;11.284;2023-05-13T09:52:08;101681.84;;;25.53
67509;BMP280;54354;44.724;11.284;2023-05-13T09:54:37;101676.38;;;25.36
67509;BMP280;54354;44.724;11.284;2023-05-13T09:57:03;101684.69;;;25.10
67509;BMP280;54354;44.724;11.284;2023-05-13T09:59:32;101682.16;;;24.96
67509;BMP280;54354;44.724;11.284;2023-05-13T10:02:00;101673.78;;;24.88
67509;BMP280;54354;44.724;11.284;2023-05-13T10:04:28;101667.47;;;25.25
67509;BMP280;54354;44.724;11.284;2023-05-13T10:06:54;101661.44;;;24.93
67509;BMP280;54354;44.724;11.284;2023-05-13T10:09:21;101656.50;;;24.85
67509;BMP280;54354;44.724;11.284;2023-05-13T10:11:48;101659.75;;;24.95
67509;BMP280;54354;44.724;11.284;2023-05-13T10:14:14;101669.41;;;25.07
67509;BMP280;54354;44.724;11.284;2023-05-13T10:16:41;101673.13;;;25.21
67509;BMP280;54354;44.724;11.284;2023-05-13T10:19:07;101663.56;;;25.42
67509;BMP280;54354;44.724;11.284;2023-05-13T10:21:33;101673.91;;;25.61
67509;BMP280;54354;44.724;11.284;2023-05-13T10:24:01;101663.59;;;25.70
67509;BMP280;54354;44.724;11.284;2023-05-13T10:26:28;101654.94;;;25.66
67509;BMP280;54354;44.724;11.284;2023-05-13T10:28:55;101664.06;;;25.69
67509;BMP280;54354;44.724;11.284;2023-05-13T10:31:22;101665.06;;;25.66
67509;BMP280;54354;44.724;11.284;2023-05-13T10:33:51;101656.41;;;25.62
67509;BMP280;54354;44.724;11.284;2023-05-13T10:42:35;101635.94;;;25.49
67509;BMP280;54354;44.724;11.284;2023-05-13T10:45:01;101628.31;;;25.48
67509;BMP280;54354;44.724;11.284;2023-05-13T10:47:30;101633.22;;;25.44
67509;BMP280;54354;44.724;11.284;2023-05-13T10:49:57;101628.28;;;25.65
67509;BMP280;54354;44.724;11.284;2023-05-13T10:52:22;101627.56;;;25.70
67509;BMP280;54354;44.724;11.284;2023-05-13T10:55:01;101615.47;;;25.71
67509;BMP280;54354;44.724;11.284;2023-05-13T10:57:34;101617.94;;;25.74
67509;BMP280;54354;44.724;11.284;2023-05-13T11:00:16;101616.44;;;25.68
67509;BMP280;54354;44.724;11.284;2023-05-13T11:02:45;101614.03;;;25.53
67509;BMP280;54354;44.724;11.284;2023-05-13T11:05:18;101619.69;;;25.38
67509;BMP280;54354;44.724;11.284;2023-05-13T11:07:56;101613.28;;;25.36
67509;BMP280;54354;44.724;11.284;2023-05-13T11:10:25;101615.00;;;25.39
67509;BMP280;54354;44.724;11.284;2023-05-13T11:15:51;101608.81;;;25.27
67509;BMP280;54354;44.724;11.284;2023-05-13T11:18:17;101612.03;;;25.48
67509;BMP280;54354;44.724;11.284;2023-05-13T11:20:52;101606.59;;;25.70
67509;BMP280;54354;44.724;11.284;2023-05-13T11:23:19;101611.75;;;25.79
67509;BMP280;54354;44.724;11.284;2023-05-13T11:25:46;101614.50;;;25.68
67509;BMP280;54354;44.724;11.284;2023-05-13T11:28:51;101611.06;;;25.62
67509;BMP280;54354;44.724;11.284;2023-05-13T11:31:18;101616.47;;;25.51
67509;BMP280;54354;44.724;11.284;2023-05-13T11:34:10;101624.59;;;25.51
67509;BMP280;54354;44.724;11.284;2023-05-13T11:36:47;101627.56;;;25.47
67509;BMP280;54354;44.724;11.284;2023-05-13T11:39:16;101626.34;;;25.43
67509;BMP280;54354;44.724;11.284;2023-05-13T11:41:47;101635.19;;;25.27
67509;BMP280;54354;44.724;11.284;2023-05-13T11:44:13;101648.50;;;25.47
67509;BMP280;54354;44.724;11.284;2023-05-13T11:50:15;101644.34;;;24.58
67509;BMP280;54354;44.724;11.284;2023-05-13T11:52:25;101655.56;;;24.46
67509;BMP280;54354;44.724;11.284;2023-05-13T11:54:56;101651.09;;;24.32
67509;BMP280;54354;44.724;11.284;2023-05-13T11:57:25;101654.66;;;24.17
67509;BMP280;54354;44.724;11.284;2023-05-13T12:02:28;101650.03;;;23.92
67509;BMP280;54354;44.724;11.284;2023-05-13T12:04:54;101655.22;;;23.90
67509;BMP280;54354;44.724;11.284;2023-05-13T12:07:24;101655.19;;;23.84
67509;BMP280;54354;44.724;11.284;2023-05-13T12:09:51;101656.72;;;24.34
67509;BMP280;54354;44.724;11.284;2023-05-13T12:12:17;101650.19;;;24.09
67509;BMP280;54354;44.724;11.284;2023-05-13T12:14:44;101664.91;;;24.02
67509;BMP280;54354;44.724;11.284;2023-05-13T12:17:12;101663.84;;;23.94
67509;BMP280;54354;44.724;11.284;2023-05-13T12:19:39;101665.47;;;23.86
67509;BMP280;54354;44.724;11.284;2023-05-13T12:22:04;101655.09;;;23.79
67509;BMP280;54354;44.724;11.284;2023-05-13T12:24:32;101648.00;;;23.81
67509;BMP280;54354;44.724;11.284;2023-05-13T12:27:05;101643.16;;;23.91
67509;BMP280;54354;44.724;11.284;2023-05-13T12:29:43;101637.84;;;24.02
67509;BMP280;54354;44.724;11.284;2023-05-13T12:32:09;101638.91;;;24.16
67509;BMP280;54354;44.724;11.284;2023-05-13T12:34:36;101635.78;;;24.23
67509;BMP280;54354;44.724;11.284;2023-05-13T12:37:12;101628.84;;;24.16
67509;BMP280;54354;44.724;11.284;2023-05-13T12:39:39;101622.19;;;24.17
67509;BMP280;54354;44.724;11.284;2023-05-13T12:42:13;101621.00;;;24.24
67509;BMP280;54354;44.724;11.284;2023-05-13T12:44:40;101625.78;;;24.46
67509;BMP280;54354;44.724;11.284;2023-05-13T12:47:06;101632.50;;;24.56
67509;BMP280;54354;44.724;11.284;2023-05-13T12:49:32;101627.03;;;24.45
67509;BMP280;54354;44.724;11.284;2023-05-13T12:51:59;101626.75;;;24.43
67509;BMP280;54354;44.724;11.284;2023-05-13T12:54:24;101627.28;;;24.47
67509;BMP280;54354;44.724;11.284;2023-05-13T12:56:51;101607.16;;;24.59
67509;BMP280;54354;44.724;11.284;2023-05-13T12:59:18;101608.66;;;24.71
67509;BMP280;54354;44.724;11.284;2023-05-13T13:01:43;101605.47;;;24.78
67509;BMP280;54354;44.724;11.284;2023-05-13T13:04:09;101605.06;;;24.97
67509;BMP280;54354;44.724;11.284;2023-05-13T13:06:34;101603.63;;;25.12
67509;BMP280;54354;44.724;11.284;2023-05-13T13:09:00;101601.66;;;25.30
67509;BMP280;54354;44.724;11.284;2023-05-13T13:11:25;101608.84;;;25.33
67509;BMP280;54354;44.724;11.284;2023-05-13T13:13:51;101604.63;;;25.32
67509;BMP280;54354;44.724;11.284;2023-05-13T13:16:16;101578.50;;;25.34
67509;BMP280;54354;44.724;11.284;2023-05-13T13:18:43;101574.78;;;25.37
67509;BMP280;54354;44.724;11.284;2023-05-13T13:21:09;101567.66;;;25.40
67509;BMP280;54354;44.724;11.284;2023-05-13T13:23:34;101555.56;;;25.41
67509;BMP280;54354;44.724;11.284;2023-05-13T13:26:00;101563.97;;;25.43
67509;BMP280;54354;44.724;11.284;2023-05-13T13:28:26;101559.78;;;25.36
67509;BMP280;54354;44.724;11.284;2023-05-13T13:30:52;101567.16;;;25.25
67509;BMP280;54354;44.724;11.284;2023-05-13T13:33:18;101555.09;;;25.14
67509;BMP280;54354;44.724;11.284;2023-05-13T13:35:44;101558.50;;;25.04
67509;BMP280;54354;44.724;11.284;2023-05-13T13:38:11;101556.50;;;24.93
67509;BMP280;54354;44.724;11.284;2023-05-13T13:40:37;101555.56;;;24.91
67509;BMP280;54354;44.724;11.284;2023-05-13T13:43:04;101549.38;;;24.96
67509;BMP280;54354;44.724;11.284;2023-05-13T13:45:30;101547.19;;;25.05
67509;BMP280;54354;44.724;11.284;2023-05-13T13:47:55;101575.28;;;25.13
67509;BMP280;54354;44.724;11.284;2023-05-13T13:52:46;101579.22;;;25.29
67509;BMP280;54354;44.724;11.284;2023-05-13T13:55:12;101575.78;;;25.34
67509;BMP280;54354;44.724;11.284;2023-05-13T13:57:38;101578.75;;;25.31
67509;BMP280;54354;44.724;11.284;2023-05-13T14:00:04;101574.56;;;25.30
67509;BMP280;54354;44.724;11.284;2023-05-13T14:02:30;101572.09;;;25.26
67509;BMP280;54354;44.724;11.284;2023-05-13T14:04:55;101575.75;;;25.23
67509;BMP280;54354;44.724;11.284;2023-05-13T14:07:22;101579.72;;;25.16
67509;BMP280;54354;44.724;11.284;2023-05-13T14:09:48;101585.66;;;25.15
67509;BMP280;54354;44.724;11.284;2023-05-13T14:12:14;101579.25;;;25.18
67509;BMP280;54354;44.724;11.284;2023-05-13T14:14:40;101585.16;;;25.22
67509;BMP280;54354;44.724;11.284;2023-05-13T14:17:05;101575.06;;;25.23